Weather History for Woodward, OK

Change the Weather History Date:

Thursday, February 7, 2013

  Actual Average (KGAG) Record (KGAG)
Temperature  
Mean Temperature 49 °F -  
Max Temperature 59 °F 50 °F 72 °F (1952)
Min Temperature 39 °F 19 °F 0 °F (2003)
Degree Days  
Heating Degree Days 16    
Moisture  
Dew Point 36 °F    
Average Humidity 62    
Maximum Humidity 94    
Minimum Humidity 29    
Precipitation  
Precipitation 0.00 in - - ()
Sea Level Pressure  
Sea Level Pressure 30.02 in    
Wind  
Wind Speed 18 mph (North)    
Max Wind Speed 28 mph    
Max Gust Speed 38 mph    
Visibility 10 miles    
Events      
Averages and records for this station are not official NWS values.
T = Trace of Precipitation, MM = Missing Value Source: NWS Daily Summary

Daily Weather History Graph

Daily Weather History Graph

Search for Another Location

Airport:

Trip Planner

Search our weather history database for the weather conditions in past years. The results will help you decide how hot, cold, wet, or windy it might be!

Date:

Astronomy

Feb. 07, 2013 Rise Set
Actual Time 7:33 AM CST 6:10 PM CST
Civil Twilight 7:07 AM CST 6:37 PM CST
Nautical Twilight 6:36 AM CST 7:08 PM CST
Astronomical Twilight 6:06 AM CST 7:38 PM CST
Moon 5:12 AM CST (2/7) 3:39 PM CST (2/7)
Length of Visible Light 11h 30m
Length of Day
10h 37m
Waning Crescent, 9% of the Moon is Illuminated
Feb 7
Waning Crescent
Feb 10
New
Feb 17
First Quarter
Feb 25
Full
Mar 4
Last Quarter

Hourly Weather History & Observations

Time (CST) Temp. Windchill Dew Point Humidity Pressure Visibility Wind Dir Wind Speed Gust Speed Precip Events Conditions
12:35 AM 55.4 °F - 51.8 °F 88% 29.76 in 10.0 mi SSE 27.6 mph 34.5 mph N/A   Mostly Cloudy
12:55 AM 55.4 °F - 51.8 °F 88% 29.76 in 10.0 mi South 24.2 mph 33.4 mph N/A   Mostly Cloudy
1:15 AM 57.2 °F - 53.6 °F 88% 29.76 in 10.0 mi South 25.3 mph 38.0 mph N/A   Overcast
1:35 AM 55.4 °F - 53.6 °F 94% 29.76 in 10.0 mi South 27.6 mph 34.5 mph N/A   Overcast
1:55 AM 55.4 °F - 53.6 °F 94% 29.76 in 10.0 mi South 25.3 mph 34.5 mph N/A   Overcast
2:15 AM 55.4 °F - 53.6 °F 94% 29.76 in 10.0 mi South 26.5 mph 32.2 mph N/A   Overcast
2:35 AM 55.4 °F - 51.8 °F 88% 29.76 in 10.0 mi South 19.6 mph 29.9 mph N/A   Overcast
2:55 AM 55.4 °F - 51.8 °F 88% 29.77 in 10.0 mi South 20.7 mph 29.9 mph N/A   Overcast
3:15 AM 55.4 °F - 51.8 °F 88% 29.77 in 10.0 mi South 17.3 mph 25.3 mph N/A   Mostly Cloudy
3:35 AM 55.4 °F - 51.8 °F 88% 29.78 in 10.0 mi SSW 12.7 mph 19.6 mph N/A   Mostly Cloudy
3:55 AM 55.4 °F - 51.8 °F 88% 29.81 in 10.0 mi NNW 9.2 mph - N/A   Overcast
4:15 AM 55.4 °F - 51.8 °F 88% 29.82 in 10.0 mi NNW 8.1 mph - N/A   Overcast
4:35 AM 55.4 °F - 51.8 °F 88% 29.83 in 10.0 mi NW 3.5 mph - N/A   Overcast
4:55 AM 55.4 °F - 51.8 °F 88% 29.83 in 10.0 mi Calm Calm - N/A   Overcast
5:15 AM 55.4 °F - 51.8 °F 88% 29.84 in 10.0 mi NW 4.6 mph - N/A   Overcast
5:35 AM 55.4 °F - 51.8 °F 88% 29.85 in 10.0 mi NW 5.8 mph - N/A   Overcast
5:55 AM 55.4 °F - 51.8 °F 88% 29.85 in 10.0 mi NNW 8.1 mph - N/A   Overcast
6:15 AM 55.4 °F - 51.8 °F 88% 29.86 in 10.0 mi NNW 8.1 mph - N/A   Overcast
6:35 AM 51.8 °F - 50.0 °F 94% 29.87 in 4.0 mi North 25.3 mph 29.9 mph N/A   Overcast
6:55 AM 50.0 °F - 42.8 °F 76% 29.89 in 10.0 mi NNW 21.9 mph 27.6 mph N/A   Overcast
7:15 AM 46.4 °F 39.0 °F 41.0 °F 81% 29.90 in 10.0 mi NNW 19.6 mph 26.5 mph N/A   Overcast
7:35 AM 46.4 °F 38.3 °F 41.0 °F 81% 29.92 in 10.0 mi North 23.0 mph 28.8 mph N/A   Overcast
7:55 AM 46.4 °F 38.7 °F 41.0 °F 81% 29.94 in 10.0 mi North 20.7 mph 28.8 mph N/A   Overcast
8:15 AM 46.4 °F 38.5 °F 41.0 °F 81% 29.96 in 10.0 mi NNW 21.9 mph 28.8 mph N/A   Overcast
8:35 AM 46.4 °F 38.7 °F 41.0 °F 81% 29.98 in 10.0 mi NNW 20.7 mph 28.8 mph N/A   Overcast
8:55 AM 46.4 °F 37.9 °F 41.0 °F 81% 30.00 in 10.0 mi NNW 25.3 mph 29.9 mph N/A   Overcast
9:15 AM 44.6 °F 35.5 °F 39.2 °F 81% 30.01 in 10.0 mi North 25.3 mph 31.1 mph N/A   Overcast
9:35 AM 46.4 °F 38.5 °F 37.4 °F 71% 30.02 in 10.0 mi North 21.9 mph 29.9 mph N/A   Overcast
9:55 AM 46.4 °F 38.5 °F 37.4 °F 71% 30.03 in 10.0 mi North 21.9 mph 28.8 mph N/A   Overcast
10:15 AM 46.4 °F 38.3 °F 37.4 °F 71% 30.03 in 10.0 mi North 23.0 mph 27.6 mph N/A   Overcast
10:35 AM 44.6 °F 37.4 °F 35.6 °F 71% 30.05 in 10.0 mi North 16.1 mph 28.8 mph N/A   Mostly Cloudy
10:55 AM 44.6 °F 36.1 °F 33.8 °F 66% 30.07 in 10.0 mi North 21.9 mph 29.9 mph N/A   Overcast
11:15 AM 44.6 °F 35.7 °F 33.8 °F 66% 30.08 in 10.0 mi North 24.2 mph 32.2 mph N/A   Overcast
11:35 AM 46.4 °F 39.2 °F 33.8 °F 62% 30.08 in 10.0 mi North 18.4 mph 29.9 mph N/A   Overcast
11:55 AM 50.0 °F - 33.8 °F 54% 30.09 in 10.0 mi North 18.4 mph 27.6 mph N/A   Overcast
12:15 PM 51.8 °F - 32.0 °F 47% 30.08 in 10.0 mi North 25.3 mph 31.1 mph N/A   Mostly Cloudy
12:35 PM 53.6 °F - 32.0 °F 44% 30.08 in 10.0 mi North 23.0 mph 29.9 mph N/A   Scattered Clouds
12:55 PM 53.6 °F - 32.0 °F 44% 30.08 in 10.0 mi North 20.7 mph 27.6 mph N/A   Scattered Clouds
1:15 PM 55.4 °F - 28.4 °F 36% 30.07 in 10.0 mi North 24.2 mph 28.8 mph N/A   Scattered Clouds
1:35 PM 53.6 °F - 26.6 °F 35% 30.07 in 10.0 mi North 21.9 mph 34.5 mph N/A   Clear
1:55 PM 55.4 °F - 28.4 °F 36% 30.08 in 10.0 mi NNW 21.9 mph 31.1 mph N/A   Clear
2:15 PM 55.4 °F - 28.4 °F 36% 30.07 in 10.0 mi North 23.0 mph 29.9 mph N/A   Clear
2:35 PM 55.4 °F - 26.6 °F 33% 30.08 in 10.0 mi North 19.6 mph 28.8 mph N/A   Clear
2:55 PM 57.2 °F - 26.6 °F 31% 30.09 in 10.0 mi North 21.9 mph 27.6 mph N/A   Clear
3:15 PM 57.2 °F - 28.4 °F 33% 30.09 in 10.0 mi North 21.9 mph 26.5 mph N/A   Clear
3:35 PM 59.0 °F - 28.4 °F 31% 30.09 in 10.0 mi North 17.3 mph 21.9 mph N/A   Clear
3:55 PM 57.2 °F - 28.4 °F 33% 30.09 in 10.0 mi North 20.7 mph 26.5 mph N/A   Clear
4:15 PM 57.2 °F - 26.6 °F 31% 30.09 in 10.0 mi North 17.3 mph 24.2 mph N/A   Clear
4:35 PM 57.2 °F - 26.6 °F 31% 30.10 in 10.0 mi North 15.0 mph - N/A   Clear
4:55 PM 57.2 °F - 26.6 °F 31% 30.10 in 10.0 mi North 16.1 mph 21.9 mph N/A   Clear
5:35 PM 55.4 °F - 23.0 °F 29% 30.12 in 10.0 mi North 16.1 mph - N/A   Clear
5:55 PM 53.6 °F - 23.0 °F 30% 30.13 in 10.0 mi North 9.2 mph - N/A   Clear
6:15 PM 51.8 °F - 23.0 °F 33% 30.14 in 10.0 mi North 8.1 mph - N/A   Clear
6:35 PM 46.4 °F 42.4 °F 23.0 °F 40% 30.15 in 10.0 mi North 8.1 mph - N/A   Clear
6:55 PM 44.6 °F 41.4 °F 23.0 °F 43% 30.16 in 10.0 mi North 5.8 mph - N/A   Clear
7:15 PM 44.6 °F 40.2 °F 24.8 °F 46% 30.17 in 10.0 mi NNE 8.1 mph - N/A   Clear
7:35 PM 42.8 °F 38.0 °F 24.8 °F 49% 30.17 in 10.0 mi North 8.1 mph - N/A   Clear
7:55 PM 42.8 °F 38.6 °F 24.8 °F 49% 30.18 in 10.0 mi NNE 6.9 mph - N/A   Clear
8:15 PM 41.0 °F 36.4 °F 24.8 °F 53% 30.19 in 10.0 mi NNE 6.9 mph - N/A   Clear
8:35 PM 41.0 °F 37.1 °F 24.8 °F 53% 30.20 in 10.0 mi NNE 5.8 mph - N/A   Clear
8:55 PM 42.8 °F 39.3 °F 23.0 °F 46% 30.21 in 10.0 mi NE 5.8 mph - N/A   Clear
9:15 PM 42.8 °F 40.1 °F 23.0 °F 46% 30.21 in 10.0 mi NE 4.6 mph - N/A   Clear
9:35 PM 42.8 °F 40.1 °F 23.0 °F 46% 30.21 in 10.0 mi NE 4.6 mph - N/A   Clear
9:55 PM 41.0 °F - 24.8 °F 53% 30.23 in 10.0 mi Calm Calm - N/A   Clear
10:15 PM 42.8 °F 41.1 °F 24.8 °F 49% 30.23 in 10.0 mi East 3.5 mph - N/A   Clear
10:35 PM 41.0 °F 37.1 °F 24.8 °F 53% 30.23 in 10.0 mi East 5.8 mph - N/A   Clear
10:55 PM 41.0 °F 37.1 °F 26.6 °F 57% 30.23 in 10.0 mi East 5.8 mph - N/A   Clear
11:15 PM 41.0 °F 37.1 °F 26.6 °F 57% 30.23 in 10.0 mi East 5.8 mph - N/A   Clear
11:35 PM 39.2 °F 35.9 °F 26.6 °F 61% 30.23 in 10.0 mi East 4.6 mph - N/A   Clear
11:55 PM 39.2 °F 37.0 °F 26.6 °F 61% 30.24 in 10.0 mi ESE 3.5 mph - N/A   Clear